createdAt,value
2019-03-20T00:05:56.049Z,76.17
2019-03-20T00:16:00.958Z,67.40
2019-03-20T00:26:06.038Z,58.23
2019-03-20T00:36:11.052Z,59.80
2019-03-20T00:46:15.923Z,66.70
2019-03-20T00:56:20.812Z,61.83
2019-03-20T01:06:25.719Z,76.63
2019-03-20T01:16:30.598Z,65.10
2019-03-20T01:26:35.489Z,60.83
2019-03-20T01:36:40.503Z,63.70
2019-03-20T01:46:45.444Z,62.73
2019-03-20T01:56:50.463Z,46.33
2019-03-20T02:06:55.358Z,65.37
2019-03-20T02:17:00.243Z,56.37
2019-03-20T02:27:05.550Z,76.50
2019-03-20T02:37:11.576Z,61.85
2019-03-20T02:47:16.581Z,66.02
2019-03-20T02:57:21.653Z,82.13
2019-03-20T03:07:26.655Z,70.90
2019-03-20T03:17:31.543Z,94.43
2019-03-20T03:27:36.647Z,79.13
2019-03-20T03:37:41.767Z,103.80
2019-03-20T03:47:47.357Z,85.03
2019-03-20T03:57:53.367Z,92.95
2019-03-20T04:07:59.394Z,52.80
2019-03-20T04:18:05.256Z,79.35
2019-03-20T04:28:10.324Z,85.57
2019-03-20T04:38:15.282Z,72.93
2019-03-20T04:48:20.366Z,66.40
2019-03-20T04:58:25.366Z,71.07
2019-03-20T05:08:30.377Z,70.87
2019-03-20T05:18:35.358Z,75.70
2019-03-20T05:28:40.465Z,77.23
2019-03-20T05:38:45.454Z,71.67
2019-03-20T05:48:52.079Z,72.72
2019-03-20T05:58:57.070Z,57.03
2019-03-20T06:09:02.064Z,47.60
2019-03-20T06:19:07.169Z,46.57
2019-03-20T06:29:12.091Z,50.98
2019-03-20T06:39:17.153Z,56.02
2019-03-20T06:49:22.147Z,57.27
2019-03-20T06:59:32.973Z,57.63
2019-03-20T07:09:43.709Z,55.20
2019-03-20T07:19:49.714Z,48.37
2019-03-20T07:29:54.609Z,42.00
2019-03-20T07:39:59.585Z,41.02
2019-03-20T07:50:07.395Z,44.48
2019-03-20T08:00:14.157Z,35.13
2019-03-20T08:10:20.448Z,22.57
2019-03-20T08:20:28.740Z,27.07
2019-03-20T08:30:33.685Z,17.75
2019-03-20T08:40:38.675Z,18.32
2019-03-20T08:50:43.693Z,16.70
2019-03-20T09:00:48.782Z,14.38
2019-03-20T09:10:56.843Z,15.32
2019-03-20T09:21:01.819Z,18.23
2019-03-20T09:31:06.753Z,9.45
2019-03-20T09:41:11.710Z,15.60
2019-03-20T09:51:16.718Z,8.80
2019-03-20T10:01:21.692Z,9.03
2019-03-20T10:11:26.715Z,15.23
2019-03-20T10:21:31.638Z,12.18
2019-03-20T10:31:36.886Z,10.58
2019-03-20T10:41:42.116Z,9.95
2019-03-20T10:51:47.303Z,10.58
2019-03-20T11:01:52.375Z,12.25
2019-03-20T11:11:57.394Z,9.33
2019-03-20T11:22:02.372Z,14.33
2019-03-20T11:32:07.477Z,27.22
2019-03-20T11:42:12.464Z,6.53
2019-03-20T11:52:17.454Z,8.73
2019-03-20T12:02:28.117Z,12.15
2019-03-20T12:12:29.278Z,16.82
2019-03-20T12:22:34.391Z,35.45
2019-03-20T12:32:39.561Z,15.63
2019-03-20T12:42:45.586Z,33.75
2019-03-20T12:52:50.604Z,14.73
2019-03-20T13:02:56.704Z,11.03
2019-03-20T13:13:01.734Z,9.55
2019-03-20T13:23:16.025Z,13.93
2019-03-20T13:33:25.575Z,13.68
2019-03-20T13:43:27.751Z,8.98
2019-03-20T13:53:35.315Z,13.50
2019-03-20T14:03:41.009Z,6.22
2019-03-20T14:13:46.091Z,7.22
2019-03-20T14:23:51.078Z,8.80
2019-03-20T14:33:57.111Z,9.28
2019-03-20T14:44:07.992Z,18.50
2019-03-20T14:54:16.338Z,19.23
2019-03-20T15:04:21.845Z,6.50
2019-03-20T15:14:30.774Z,20.23
2019-03-20T15:24:37.932Z,9.83
2019-03-20T15:34:44.090Z,10.33
2019-03-20T15:44:49.266Z,11.50
2019-03-20T15:54:55.535Z,10.07
2019-03-20T16:05:00.608Z,12.10
2019-03-20T16:15:09.005Z,9.20
2019-03-20T16:25:15.995Z,13.57
2019-03-20T16:35:21.511Z,12.40
2019-03-20T16:45:28.475Z,11.10
2019-03-20T16:55:33.852Z,13.90
2019-03-20T17:05:39.247Z,102.60
2019-03-20T17:15:45.145Z,64.37
2019-03-20T17:25:50.414Z,39.58
2019-03-20T17:35:55.614Z,46.47
2019-03-20T17:46:00.901Z,60.30
2019-03-20T17:56:06.245Z,33.77
2019-03-20T18:06:11.316Z,41.92
2019-03-20T18:16:16.754Z,89.10
2019-03-20T18:26:21.969Z,41.95
2019-03-20T18:36:27.308Z,77.80
2019-03-20T18:46:33.294Z,66.90
2019-03-20T18:56:38.451Z,116.50
2019-03-20T19:06:45.822Z,117.90
2019-03-20T19:16:51.282Z,131.40
2019-03-20T19:26:56.523Z,163.93
2019-03-20T19:37:01.911Z,81.93
2019-03-20T19:47:07.447Z,54.63
2019-03-20T19:57:12.856Z,34.97
2019-03-20T20:07:18.219Z,77.23
2019-03-20T20:17:24.160Z,68.73
2019-03-20T20:27:30.081Z,73.30
2019-03-20T20:37:35.399Z,62.70
2019-03-20T20:47:42.428Z,140.23
2019-03-20T20:57:47.552Z,149.73
2019-03-20T21:07:52.847Z,122.70
2019-03-20T21:18:15.805Z,77.63
2019-03-20T21:28:52.581Z,58.48
2019-03-20T21:38:59.070Z,59.33
2019-03-20T21:49:05.158Z,63.38
2019-03-20T21:59:39.183Z,47.07
2019-03-20T22:09:55.929Z,43.80
2019-03-20T22:20:09.833Z,41.30
2019-03-20T22:30:14.820Z,39.73
2019-03-20T22:40:28.724Z,41.37
2019-03-20T22:50:45.275Z,34.80
2019-03-20T23:00:55.828Z,37.75
2019-03-20T23:11:02.652Z,31.50
2019-03-20T23:21:08.971Z,43.73
2019-03-20T23:31:15.148Z,31.07
2019-03-20T23:41:20.416Z,29.87
2019-03-20T23:51:31.017Z,33.13
